Terminal Aerodrome Forecast
Issued by NWS

Home | Current Version | Previous Version | Text Only | Print | Product List | Glossary On
Versions: 1 2 3 4 5 6 7 8 9 10 11 12 13 14 15 16 17 18 19 20 21 22 23 24 25 26 27 28 29 30 31 32 33 34 35 36 37 38 39 40 41 42
000
FTUS43 KPAH 311436 AAB
TAFOWB
TAF AMD
KOWB 311436Z 3115/0112 33009KT P6SM OVC009
     FM311900 32007KT P6SM SCT009 OVC012
     FM010300 01005KT 6SM BR OVC009
     FM010900 03007KT 5SM BR OVC005=

USA.gov is the U.S. government's official web portal to all federal, state and local government web resources and services.